Hanover, Virginia
Current Conditions -  °F | °C
As of 10:46 AM on Monday 22 Dec 2014 (Local Time) from KOFP Reporting Station
Light Rain Light Rain  
Wind Chill: 31°   Ceiling: 700
Heat Index: 35°   Visibility: 1.2mi
Dew Point: 33°   Wind: 5mph
Humidity: 92%   Direction: 10°N
Pressure: 30.25"   Gusts: NA
Location:  37.77°N, 77.37°W
Report Text: KOFP 221546Z AUTO 01004KT 1 1/4SM -RA BR BKN007 OVC032 02/01 A3025 RMK AO2 P0008 T00170006
Loading
Personal Weather Stations






























Interactive Weather Map New forecast layout! Learn more

10-Day Weather Forecast

Advertisements
Track Severe Weather on mobile